Time;durP1;ratioP1;P1;durP2;ratioP2;P2;SDS_P1;SDS_P2;PMS_P1;PMS_P2;Temp;Humidity;BMP_temperature;BMP_pressure;BME280_temperature;BME280_humidity;BME280_pressure;Samples;Min_cycle;Max_cycle;Signal;HPM_P1;HPM_P2
2021/12/18 00:00:08;;;;;;;;;40.75;28.75;;;;;;;;5031836;28;45325;-80
2021/12/18 00:02:34;;;;;;;;;36.00;32.75;;;;;;;;5032189;28;45555;-81
2021/12/18 00:04:59;;;;;;;;;44.50;34.00;;;;;;;;5031600;28;45230;-80
2021/12/18 00:07:24;;;;;;;;;37.25;33.50;;;;;;;;5035674;28;45226;-80
2021/12/18 00:09:52;;;;;;;;;42.00;33.50;;;;;;;;5034321;28;45290;-79
2021/12/18 00:12:17;;;;;;;;;44.50;36.50;;;;;;;;5031984;28;45450;-79
2021/12/18 00:14:43;;;;;;;;;37.75;32.75;;;;;;;;5033341;28;46058;-80
2021/12/18 00:17:08;;;;;;;;;35.25;30.75;;;;;;;;5034539;28;45363;-81
2021/12/18 00:19:34;;;;;;;;;38.25;32.25;;;;;;;;5034602;28;45503;-80
2021/12/18 00:22:00;;;;;;;;;35.25;30.50;;;;;;;;5033478;28;45282;-80
2021/12/18 00:24:25;;;;;;;;;43.00;34.50;;;;;;;;5033197;28;46281;-80
2021/12/18 00:26:50;;;;;;;;;33.00;31.75;;;;;;;;5014882;28;45462;-80
2021/12/18 00:29:16;;;;;;;;;35.00;30.50;;;;;;;;5035330;28;45643;-80
2021/12/18 00:31:41;;;;;;;;;40.75;30.00;;;;;;;;5034411;28;45541;-80
2021/12/18 00:34:06;;;;;;;;;41.00;33.75;;;;;;;;5022597;28;48209;-78
2021/12/18 00:36:31;;;;;;;;;44.75;33.75;;;;;;;;5057186;28;44932;-79
2021/12/18 00:38:56;;;;;;;;;34.00;28.25;;;;;;;;5043852;28;45301;-80
2021/12/18 00:44:02;;;;;;;;;41.00;30.75;;;;;;;;5035523;28;45301;-80
2021/12/18 00:46:35;;;;;;;;;39.25;31.75;;;;;;;;5035732;28;45290;-80
2021/12/18 00:49:01;;;;;;;;;39.25;33.75;;;;;;;;5037215;28;45344;-78
2021/12/18 00:51:27;;;;;;;;;32.25;29.25;;;;;;;;5036697;28;45266;-79
2021/12/18 00:53:53;;;;;;;;;31.25;29.50;;;;;;;;5031317;28;47077;-80
2021/12/18 00:56:18;;;;;;;;;34.00;30.50;;;;;;;;5034860;28;45393;-80
2021/12/18 00:58:44;;;;;;;;;29.50;29.00;;;;;;;;5036583;28;45521;-79
2021/12/18 01:01:10;;;;;;;;;33.50;28.25;;;;;;;;5036226;28;45297;-79
2021/12/18 01:03:37;;;;;;;;;31.00;27.50;;;;;;;;5034836;28;46070;-78
2021/12/18 01:06:02;;;;;;;;;32.00;28.75;;;;;;;;5036375;28;45487;-78
2021/12/18 01:08:28;;;;;;;;;31.00;28.00;;;;;;;;5042963;28;45411;-79
2021/12/18 01:13:47;;;;;;;;;33.00;27.75;;;;;;;;5037719;28;46269;-79
2021/12/18 01:16:19;;;;;;;;;35.00;32.50;;;;;;;;5036102;28;45584;-80
2021/12/18 01:24:12;;;;;;;;;40.75;29.00;;;;;;;;5038583;28;45847;-80
2021/12/18 01:26:37;;;;;;;;;30.25;26.25;;;;;;;;5036570;28;45368;-80
2021/12/18 01:29:02;;;;;;;;;26.00;24.50;;;;;;;;5037403;28;45266;-80
2021/12/18 01:31:28;;;;;;;;;29.75;29.00;;;;;;;;5036467;28;45286;-80
2021/12/18 01:33:53;;;;;;;;;27.00;23.50;;;;;;;;5035160;28;45394;-80
2021/12/18 01:36:20;;;;;;;;;29.50;24.25;;;;;;;;5036726;28;45364;-81
2021/12/18 01:38:45;;;;;;;;;30.00;23.75;;;;;;;;5047158;28;45510;-80
2021/12/18 01:41:10;;;;;;;;;33.50;28.75;;;;;;;;5036602;28;45337;-80
2021/12/18 01:53:44;;;;;;;;;37.25;26.50;;;;;;;;5035488;28;45563;-79
2021/12/18 01:56:10;;;;;;;;;34.25;23.50;;;;;;;;5036229;28;45564;-80
2021/12/18 01:58:35;;;;;;;;;32.75;29.00;;;;;;;;5037137;28;44772;-80
2021/12/18 02:01:02;;;;;;;;;27.50;25.25;;;;;;;;5033868;28;45558;-79
2021/12/18 02:03:28;;;;;;;;;30.00;24.50;;;;;;;;5035473;28;47025;-79
2021/12/18 02:05:53;;;;;;;;;28.75;27.00;;;;;;;;5034117;28;45299;-80
2021/12/18 02:08:20;;;;;;;;;30.50;26.50;;;;;;;;5035818;28;45238;-80
2021/12/18 02:10:51;;;;;;;;;25.00;21.00;;;;;;;;5036122;28;45326;-81
2021/12/18 02:21:18;;;;;;;;;26.25;22.00;;;;;;;;5035446;28;45443;-78
2021/12/18 02:23:44;;;;;;;;;25.00;20.25;;;;;;;;5035621;28;47156;-78
2021/12/18 02:26:11;;;;;;;;;37.25;27.75;;;;;;;;5061881;28;45323;-78
2021/12/18 02:28:36;;;;;;;;;30.25;26.00;;;;;;;;5065227;28;45319;-78
2021/12/18 02:31:02;;;;;;;;;23.00;21.25;;;;;;;;5050061;28;45394;-78
2021/12/18 02:33:28;;;;;;;;;28.00;23.00;;;;;;;;5036484;28;46186;-79
2021/12/18 02:35:56;;;;;;;;;31.00;29.00;;;;;;;;5033855;28;45269;-79
2021/12/18 02:38:46;;;;;;;;;24.00;22.75;;;;;;;;5035766;28;45257;-79
2021/12/18 02:41:37;;;;;;;;;23.75;23.25;;;;;;;;5045598;28;45371;-78
2021/12/18 02:43:58;;;;;;;;;31.50;25.75;;;;;;;;5036374;28;46170;-80
2021/12/18 02:46:24;;;;;;;;;25.50;23.75;;;;;;;;5034237;28;45443;-80
2021/12/18 02:48:50;;;;;;;;;23.75;21.25;;;;;;;;5034625;28;45341;-78
2021/12/18 02:51:16;;;;;;;;;33.00;30.00;;;;;;;;5029355;28;45471;-79
2021/12/18 02:53:43;;;;;;;;;27.75;24.75;;;;;;;;5035390;28;46290;-79
2021/12/18 02:56:10;;;;;;;;;30.00;28.75;;;;;;;;5034856;28;46041;-79
2021/12/18 02:58:36;;;;;;;;;30.25;27.00;;;;;;;;5036452;28;46849;-80
2021/12/18 03:01:01;;;;;;;;;32.25;27.25;;;;;;;;5034865;28;45562;-79
2021/12/18 03:03:31;;;;;;;;;28.00;26.00;;;;;;;;5034710;28;45397;-80
2021/12/18 03:06:45;;;;;;;;;36.25;31.25;;;;;;;;5034765;28;45436;-80
2021/12/18 03:09:11;;;;;;;;;28.50;27.75;;;;;;;;5025623;28;45467;-80
2021/12/18 03:25:12;;;;;;;;;33.75;23.50;;;;;;;;5020203;28;45946;-80
2021/12/18 03:27:38;;;;;;;;;31.75;27.00;;;;;;;;5017118;28;45315;-79
2021/12/18 03:30:05;;;;;;;;;27.50;22.50;;;;;;;;5027676;28;45394;-80
2021/12/18 03:32:30;;;;;;;;;26.00;25.00;;;;;;;;5018451;28;45449;-78
2021/12/18 03:34:55;;;;;;;;;27.00;23.75;;;;;;;;5035793;28;45999;-80
2021/12/18 03:37:21;;;;;;;;;34.25;29.00;;;;;;;;5014547;28;45445;-79
2021/12/18 03:39:47;;;;;;;;;28.25;26.25;;;;;;;;5019383;28;45519;-78
2021/12/18 03:42:12;;;;;;;;;29.75;27.25;;;;;;;;5022361;28;45504;-78
2021/12/18 03:44:38;;;;;;;;;32.50;27.75;;;;;;;;5015346;28;48427;-78
2021/12/18 03:47:08;;;;;;;;;33.50;27.50;;;;;;;;5034808;28;45509;-78
2021/12/18 03:49:34;;;;;;;;;31.50;23.50;;;;;;;;5033280;28;45380;-79
2021/12/18 03:51:59;;;;;;;;;35.00;29.75;;;;;;;;5031980;28;45557;-80
2021/12/18 03:54:24;;;;;;;;;25.25;23.00;;;;;;;;5031818;28;45377;-79
2021/12/18 03:56:49;;;;;;;;;29.25;28.25;;;;;;;;5032668;28;45388;-77
2021/12/18 03:59:15;;;;;;;;;32.25;28.00;;;;;;;;5033547;28;45455;-79
2021/12/18 04:01:40;;;;;;;;;26.00;26.00;;;;;;;;5033656;28;45442;-79
2021/12/18 04:04:05;;;;;;;;;29.50;27.50;;;;;;;;5032987;28;45654;-79
2021/12/18 04:06:31;;;;;;;;;35.75;29.50;;;;;;;;5013246;28;45488;-80
2021/12/18 04:08:57;;;;;;;;;35.25;29.25;;;;;;;;5033147;28;45579;-79
2021/12/18 04:11:22;;;;;;;;;28.25;25.00;;;;;;;;5014131;28;45327;-79
2021/12/18 04:13:48;;;;;;;;;28.75;24.75;;;;;;;;5034406;28;46097;-78
2021/12/18 04:16:13;;;;;;;;;25.25;22.75;;;;;;;;5028387;28;45536;-79
2021/12/18 04:18:39;;;;;;;;;35.25;28.75;;;;;;;;5048046;28;44845;-80
2021/12/18 04:21:04;;;;;;;;;26.50;21.00;;;;;;;;5053441;28;45218;-78
2021/12/18 04:23:29;;;;;;;;;29.50;25.25;;;;;;;;5052936;28;45280;-79
2021/12/18 04:25:56;;;;;;;;;28.25;27.75;;;;;;;;5022205;28;45495;-79
2021/12/18 04:28:21;;;;;;;;;28.75;24.75;;;;;;;;5034428;28;45533;-80
2021/12/18 04:30:46;;;;;;;;;28.50;26.50;;;;;;;;5035335;28;45395;-80
2021/12/18 04:33:11;;;;;;;;;35.75;31.25;;;;;;;;5036336;28;46001;-79
2021/12/18 04:35:37;;;;;;;;;35.25;30.00;;;;;;;;5034446;28;45657;-78
2021/12/18 04:38:02;;;;;;;;;26.50;23.50;;;;;;;;5037309;28;45265;-78
2021/12/18 04:40:27;;;;;;;;;30.50;26.50;;;;;;;;5032461;28;45440;-79
2021/12/18 04:42:55;;;;;;;;;33.00;29.00;;;;;;;;5035891;28;46233;-78
2021/12/18 04:45:20;;;;;;;;;33.25;28.50;;;;;;;;5033660;28;45450;-79
2021/12/18 04:47:45;;;;;;;;;33.25;26.50;;;;;;;;5034751;28;45372;-78
2021/12/18 04:50:11;;;;;;;;;30.75;26.25;;;;;;;;5036463;28;45513;-78
2021/12/18 04:52:36;;;;;;;;;29.00;26.50;;;;;;;;5037615;28;46128;-79
2021/12/18 04:55:02;;;;;;;;;34.75;32.00;;;;;;;;5034721;28;45536;-79
2021/12/18 04:57:28;;;;;;;;;37.75;31.00;;;;;;;;5035829;28;45451;-79
2021/12/18 04:59:53;;;;;;;;;40.75;32.00;;;;;;;;5036407;28;45452;-79
2021/12/18 05:02:23;;;;;;;;;35.75;31.50;;;;;;;;5035851;28;46536;-79
2021/12/18 05:04:48;;;;;;;;;34.50;28.75;;;;;;;;5037533;28;45439;-79
2021/12/18 05:07:14;;;;;;;;;31.75;31.00;;;;;;;;5035499;28;45298;-78
2021/12/18 05:09:40;;;;;;;;;36.00;30.50;;;;;;;;5038544;28;45429;-79
2021/12/18 05:12:05;;;;;;;;;30.00;29.25;;;;;;;;5026235;28;45591;-78
2021/12/18 05:14:30;;;;;;;;;30.25;25.75;;;;;;;;5031812;28;45255;-79
2021/12/18 05:16:55;;;;;;;;;28.50;25.75;;;;;;;;5038298;28;45400;-78
2021/12/18 05:19:21;;;;;;;;;31.25;28.50;;;;;;;;5036423;28;45309;-78
2021/12/18 05:21:46;;;;;;;;;38.25;33.00;;;;;;;;5034671;28;45610;-78
2021/12/18 05:24:11;;;;;;;;;28.75;26.25;;;;;;;;5029248;28;45290;-78
2021/12/18 05:26:36;;;;;;;;;41.75;33.25;;;;;;;;5030596;28;45851;-78
2021/12/18 05:29:02;;;;;;;;;31.75;28.75;;;;;;;;5018271;28;45533;-78
2021/12/18 05:31:27;;;;;;;;;35.00;31.00;;;;;;;;5032080;28;46850;-78
2021/12/18 05:33:57;;;;;;;;;30.75;27.50;;;;;;;;5033135;28;45443;-80
2021/12/18 05:36:35;;;;;;;;;31.25;28.75;;;;;;;;5034668;28;45451;-77
2021/12/18 05:39:05;;;;;;;;;34.00;29.75;;;;;;;;5024403;28;45516;-69
2021/12/18 05:41:30;;;;;;;;;33.00;31.00;;;;;;;;5025505;28;46250;-69
2021/12/18 05:43:56;;;;;;;;;31.50;29.75;;;;;;;;5035459;28;45486;-68
2021/12/18 05:46:21;;;;;;;;;38.00;32.50;;;;;;;;5033901;28;46666;-69
2021/12/18 05:48:46;;;;;;;;;34.75;32.50;;;;;;;;5032515;28;45469;-68
2021/12/18 05:51:12;;;;;;;;;31.00;30.00;;;;;;;;5024300;28;46011;-68
2021/12/18 05:53:37;;;;;;;;;33.00;28.25;;;;;;;;5033136;28;45528;-69
2021/12/18 05:56:02;;;;;;;;;28.75;24.25;;;;;;;;5030716;28;45505;-68
2021/12/18 05:58:27;;;;;;;;;28.00;25.25;;;;;;;;5033025;28;45600;-68
2021/12/18 06:00:53;;;;;;;;;36.00;27.50;;;;;;;;5013649;28;45502;-68
2021/12/18 06:03:18;;;;;;;;;31.75;29.75;;;;;;;;5023801;28;45306;-69
2021/12/18 06:05:43;;;;;;;;;27.25;26.25;;;;;;;;5032546;28;45541;-68
2021/12/18 06:08:11;;;;;;;;;30.25;26.25;;;;;;;;5032905;28;45512;-70
2021/12/18 06:10:37;;;;;;;;;28.75;26.00;;;;;;;;5033302;28;47244;-68
2021/12/18 06:13:03;;;;;;;;;32.25;29.00;;;;;;;;5029080;28;45502;-69
2021/12/18 06:15:28;;;;;;;;;29.50;27.75;;;;;;;;5033447;28;45397;-68
2021/12/18 06:17:55;;;;;;;;;34.00;29.00;;;;;;;;5033464;28;45570;-67
2021/12/18 06:20:20;;;;;;;;;27.75;25.75;;;;;;;;5034149;28;46351;-69
2021/12/18 06:22:46;;;;;;;;;31.75;27.75;;;;;;;;5036144;28;45242;-70
2021/12/18 06:25:11;;;;;;;;;28.00;25.75;;;;;;;;5037594;28;45436;-67
2021/12/18 06:27:36;;;;;;;;;33.00;29.50;;;;;;;;5033308;28;45557;-68
2021/12/18 06:30:02;;;;;;;;;29.50;25.75;;;;;;;;5036116;28;46087;-68
2021/12/18 06:32:27;;;;;;;;;37.50;30.75;;;;;;;;5041615;28;45516;-68
2021/12/18 06:34:52;;;;;;;;;28.50;24.75;;;;;;;;5035921;28;45359;-70
2021/12/18 06:37:18;;;;;;;;;30.00;25.25;;;;;;;;5031898;28;45444;-68
2021/12/18 06:39:43;;;;;;;;;32.75;28.50;;;;;;;;5033531;28;46073;-68
2021/12/18 06:42:08;;;;;;;;;27.00;24.25;;;;;;;;5033525;28;45544;-68
2021/12/18 06:44:34;;;;;;;;;35.50;28.25;;;;;;;;5032567;28;45530;-68
2021/12/18 06:46:59;;;;;;;;;32.00;28.00;;;;;;;;5035363;28;45285;-68
2021/12/18 06:49:24;;;;;;;;;38.50;29.50;;;;;;;;5036619;28;47296;-67
2021/12/18 06:51:49;;;;;;;;;27.50;26.50;;;;;;;;5035560;28;45600;-68
2021/12/18 06:54:14;;;;;;;;;27.25;23.25;;;;;;;;5033437;28;45577;-68
2021/12/18 06:56:40;;;;;;;;;36.75;29.75;;;;;;;;5033006;28;45554;-68
2021/12/18 06:59:05;;;;;;;;;22.00;16.25;;;;;;;;5034189;28;46107;-70
2021/12/18 07:01:30;;;;;;;;;28.00;26.75;;;;;;;;5033998;28;45365;-68
2021/12/18 07:03:56;;;;;;;;;32.50;27.00;;;;;;;;5033669;28;45317;-68
2021/12/18 07:06:21;;;;;;;;;22.25;20.50;;;;;;;;5032956;28;45558;-67
2021/12/18 07:08:46;;;;;;;;;34.00;29.00;;;;;;;;5032537;28;46289;-68
2021/12/18 07:11:12;;;;;;;;;32.00;30.50;;;;;;;;5034182;28;45453;-69
2021/12/18 07:13:37;;;;;;;;;29.25;24.75;;;;;;;;5032092;28;45307;-69
2021/12/18 07:16:02;;;;;;;;;27.50;26.00;;;;;;;;5031677;28;45278;-68
2021/12/18 07:18:27;;;;;;;;;27.50;23.00;;;;;;;;5039780;28;46163;-69
2021/12/18 07:20:53;;;;;;;;;30.50;26.00;;;;;;;;5032772;28;45237;-69
2021/12/18 07:23:18;;;;;;;;;25.75;24.25;;;;;;;;5032934;28;45302;-69
2021/12/18 07:25:43;;;;;;;;;34.75;25.25;;;;;;;;5035040;28;45400;-69
2021/12/18 07:28:09;;;;;;;;;29.75;25.25;;;;;;;;5033646;28;45440;-68
2021/12/18 07:30:34;;;;;;;;;25.50;25.00;;;;;;;;5039222;28;45277;-68
2021/12/18 07:33:01;;;;;;;;;27.00;22.50;;;;;;;;5033411;28;45455;-68
2021/12/18 07:35:26;;;;;;;;;27.50;23.75;;;;;;;;5046187;28;45343;-69
2021/12/18 07:37:51;;;;;;;;;24.50;23.75;;;;;;;;5034431;28;47163;-68
2021/12/18 07:40:17;;;;;;;;;28.00;26.00;;;;;;;;5014585;28;45290;-68
2021/12/18 07:42:42;;;;;;;;;27.50;26.00;;;;;;;;5032395;28;45364;-68
2021/12/18 07:45:08;;;;;;;;;29.25;27.50;;;;;;;;5032526;28;45455;-68
2021/12/18 07:47:33;;;;;;;;;26.75;24.50;;;;;;;;5031686;28;46403;-69
2021/12/18 07:49:58;;;;;;;;;17.00;16.75;;;;;;;;5043738;28;45577;-69
2021/12/18 07:52:24;;;;;;;;;26.75;26.50;;;;;;;;5031034;28;45376;-68
2021/12/18 07:54:49;;;;;;;;;24.75;22.25;;;;;;;;5030374;28;45446;-68
2021/12/18 07:57:15;;;;;;;;;31.50;27.00;;;;;;;;5033443;28;46216;-69
2021/12/18 07:59:40;;;;;;;;;31.00;29.50;;;;;;;;5032162;28;45363;-69
2021/12/18 08:02:05;;;;;;;;;34.75;30.50;;;;;;;;5044426;28;45310;-69
2021/12/18 08:04:34;;;;;;;;;35.50;29.25;;;;;;;;5035400;28;45563;-68
2021/12/18 08:06:59;;;;;;;;;38.75;33.00;;;;;;;;5031598;28;46113;-69
2021/12/18 08:09:25;;;;;;;;;35.50;30.00;;;;;;;;5030845;28;45410;-69
2021/12/18 08:11:50;;;;;;;;;38.50;32.50;;;;;;;;5032327;28;45304;-69
2021/12/18 08:14:15;;;;;;;;;30.50;29.50;;;;;;;;5014037;28;45614;-69
2021/12/18 08:16:40;;;;;;;;;36.75;33.25;;;;;;;;5033550;28;46380;-68
2021/12/18 08:19:05;;;;;;;;;31.50;24.00;;;;;;;;5031513;28;45377;-69
2021/12/18 08:21:31;;;;;;;;;37.25;31.75;;;;;;;;5032174;28;45296;-68
2021/12/18 08:23:56;;;;;;;;;29.75;26.00;;;;;;;;5032468;28;45361;-68
2021/12/18 08:26:21;;;;;;;;;32.25;29.25;;;;;;;;5037692;28;45554;-69
2021/12/18 08:28:46;;;;;;;;;36.50;28.50;;;;;;;;5033774;28;45288;-68
2021/12/18 08:31:11;;;;;;;;;30.25;23.25;;;;;;;;5036352;28;45557;-68
2021/12/18 08:33:37;;;;;;;;;24.50;24.50;;;;;;;;5029516;28;45429;-69
2021/12/18 08:36:02;;;;;;;;;36.25;28.75;;;;;;;;5013310;28;46413;-69
2021/12/18 08:38:27;;;;;;;;;32.00;27.75;;;;;;;;5031451;28;45401;-69
2021/12/18 08:40:53;;;;;;;;;40.75;33.00;;;;;;;;5032956;28;45352;-69
2021/12/18 08:43:18;;;;;;;;;40.25;29.75;;;;;;;;5031860;28;45439;-68
2021/12/18 08:45:43;;;;;;;;;39.50;28.25;;;;;;;;5035888;28;46151;-69
2021/12/18 08:48:08;;;;;;;;;32.25;25.75;;;;;;;;5041732;28;45383;-70
2021/12/18 08:50:34;;;;;;;;;27.75;22.25;;;;;;;;5032019;28;46068;-69
2021/12/18 08:52:59;;;;;;;;;32.75;29.25;;;;;;;;5033563;28;45563;-70
2021/12/18 08:55:24;;;;;;;;;28.25;26.75;;;;;;;;5031425;28;48776;-69
2021/12/18 08:57:50;;;;;;;;;35.00;31.25;;;;;;;;5030729;28;45503;-68
2021/12/18 09:00:17;;;;;;;;;27.50;23.00;;;;;;;;5030989;28;45586;-69
2021/12/18 09:02:44;;;;;;;;;31.25;26.25;;;;;;;;5032735;28;45256;-68
2021/12/18 09:05:10;;;;;;;;;33.50;30.00;;;;;;;;5034787;28;47360;-68
2021/12/18 09:07:35;;;;;;;;;37.00;28.50;;;;;;;;5035563;28;45270;-68
2021/12/18 09:10:01;;;;;;;;;31.00;26.25;;;;;;;;5033463;28;45271;-69
2021/12/18 09:12:26;;;;;;;;;25.00;25.00;;;;;;;;5033074;28;45487;-68
2021/12/18 09:14:52;;;;;;;;;33.25;26.25;;;;;;;;5034651;28;46313;-68
2021/12/18 09:17:17;;;;;;;;;30.25;23.75;;;;;;;;5033872;28;45254;-69
2021/12/18 09:19:42;;;;;;;;;24.25;22.50;;;;;;;;5036850;28;45275;-68
2021/12/18 09:22:09;;;;;;;;;28.75;24.50;;;;;;;;5033797;28;45318;-68
2021/12/18 09:24:34;;;;;;;;;27.25;26.00;;;;;;;;5033756;28;47092;-70
2021/12/18 09:26:59;;;;;;;;;22.25;19.50;;;;;;;;5033966;28;45426;-70
2021/12/18 09:29:25;;;;;;;;;24.75;22.25;;;;;;;;5033629;28;45476;-69
2021/12/18 09:31:50;;;;;;;;;34.25;31.00;;;;;;;;5035479;28;45526;-69
2021/12/18 09:34:15;;;;;;;;;23.00;22.00;;;;;;;;5043109;28;47099;-69
2021/12/18 09:36:40;;;;;;;;;25.50;23.75;;;;;;;;5037276;28;45547;-70
2021/12/18 09:39:06;;;;;;;;;17.25;14.25;;;;;;;;5033320;28;45584;-69
2021/12/18 09:41:31;;;;;;;;;23.75;23.75;;;;;;;;5035240;28;45379;-69
2021/12/18 09:43:57;;;;;;;;;28.25;26.00;;;;;;;;5035018;28;46939;-69
2021/12/18 09:46:22;;;;;;;;;28.25;25.75;;;;;;;;5030686;28;45505;-69
2021/12/18 09:48:48;;;;;;;;;30.00;29.50;;;;;;;;5031635;28;46208;-68
2021/12/18 09:51:22;;;;;;;;;31.75;28.50;;;;;;;;5013375;28;45555;-68
2021/12/18 09:53:48;;;;;;;;;32.50;30.25;;;;;;;;5031362;28;46341;-69
2021/12/18 09:56:14;;;;;;;;;28.25;25.75;;;;;;;;5033342;28;45657;-69
2021/12/18 09:58:39;;;;;;;;;25.00;25.00;;;;;;;;5035699;28;45750;-70
2021/12/18 10:01:04;;;;;;;;;29.75;29.25;;;;;;;;5035193;28;45427;-71
2021/12/18 10:03:41;;;;;;;;;23.75;22.50;;;;;;;;5030899;28;46047;-69
2021/12/18 10:06:25;;;;;;;;;34.25;29.00;;;;;;;;5030660;28;45464;-71
2021/12/18 10:08:50;;;;;;;;;27.25;25.50;;;;;;;;5013860;28;45408;-68
2021/12/18 10:11:18;;;;;;;;;33.50;29.00;;;;;;;;5033901;28;45471;-69
2021/12/18 10:14:02;;;;;;;;;27.75;23.75;;;;;;;;5033825;28;46675;-69
2021/12/18 10:16:27;;;;;;;;;25.75;22.75;;;;;;;;5033320;28;45597;-68
2021/12/18 10:18:53;;;;;;;;;22.00;20.75;;;;;;;;5031562;28;45486;-69
2021/12/18 10:21:23;;;;;;;;;29.25;26.75;;;;;;;;5022641;28;46519;-69
2021/12/18 10:23:49;;;;;;;;;28.75;27.25;;;;;;;;5033471;28;45359;-69
2021/12/18 10:26:47;;;;;;;;;24.25;22.25;;;;;;;;5033634;28;45244;-70
2021/12/18 10:29:28;;;;;;;;;26.25;24.50;;;;;;;;4972535;28;45479;-69
2021/12/18 10:31:53;;;;;;;;;32.00;27.75;;;;;;;;4972594;28;45493;-70
2021/12/18 10:34:18;;;;;;;;;33.50;28.50;;;;;;;;4972141;28;45809;-71
2021/12/18 10:37:02;;;;;;;;;22.00;19.25;;;;;;;;4972484;28;45358;-69
2021/12/18 10:39:27;;;;;;;;;24.50;24.50;;;;;;;;4974874;28;45551;-69
2021/12/18 10:41:52;;;;;;;;;24.75;24.50;;;;;;;;4971504;28;45501;-70
2021/12/18 10:44:17;;;;;;;;;25.00;22.50;;;;;;;;4982914;28;45426;-71
2021/12/18 10:46:44;;;;;;;;;25.25;22.00;;;;;;;;4972090;28;45442;-69
2021/12/18 10:49:09;;;;;;;;;24.25;21.25;;;;;;;;4971787;28;47783;-69
2021/12/18 10:51:35;;;;;;;;;30.00;28.00;;;;;;;;4972418;28;45557;-69
2021/12/18 10:54:05;;;;;;;;;25.00;23.00;;;;;;;;4971541;28;45734;-69
2021/12/18 10:56:32;;;;;;;;;27.00;24.00;;;;;;;;4957259;28;45383;-69
2021/12/18 10:58:57;;;;;;;;;30.75;25.00;;;;;;;;4967900;28;46515;-69
2021/12/18 11:01:22;;;;;;;;;24.75;23.75;;;;;;;;4973474;28;45323;-69
2021/12/18 11:03:49;;;;;;;;;25.75;22.00;;;;;;;;4974897;28;46942;-69
2021/12/18 11:06:22;;;;;;;;;23.25;23.25;;;;;;;;5028304;28;45578;-71
2021/12/18 11:08:52;;;;;;;;;27.00;24.50;;;;;;;;5033082;28;45466;-70
2021/12/18 11:14:15;;;;;;;;;22.75;20.75;;;;;;;;4944779;28;45718;-69
2021/12/18 11:16:48;;;;;;;;;19.25;17.50;;;;;;;;4951999;28;45554;-70
2021/12/18 11:19:16;;;;;;;;;24.25;20.50;;;;;;;;4942667;28;45646;-70
2021/12/18 11:21:42;;;;;;;;;26.50;22.00;;;;;;;;4946337;28;45644;-70
2021/12/18 11:24:08;;;;;;;;;24.00;22.25;;;;;;;;4950651;28;47262;-69
2021/12/18 11:26:35;;;;;;;;;24.00;22.25;;;;;;;;4937231;28;45561;-70
2021/12/18 11:29:01;;;;;;;;;24.50;21.50;;;;;;;;4941658;28;46753;-71
2021/12/18 11:31:26;;;;;;;;;27.00;23.50;;;;;;;;4950712;28;45511;-70
2021/12/18 11:33:52;;;;;;;;;27.75;24.50;;;;;;;;4947881;28;46656;-72
2021/12/18 11:36:18;;;;;;;;;23.25;23.25;;;;;;;;4961389;28;45312;-73
2021/12/18 11:38:44;;;;;;;;;27.75;24.25;;;;;;;;4951023;28;45554;-72
2021/12/18 11:41:16;;;;;;;;;19.75;18.75;;;;;;;;4965134;28;45556;-72
2021/12/18 11:43:45;;;;;;;;;18.50;17.25;;;;;;;;4937862;28;46551;-71
2021/12/18 11:46:29;;;;;;;;;21.25;19.25;;;;;;;;4944079;28;45717;-71
2021/12/18 11:48:55;;;;;;;;;19.75;18.75;;;;;;;;4944644;28;45492;-70
2021/12/18 11:51:20;;;;;;;;;26.25;23.25;;;;;;;;5005130;28;45338;-71
2021/12/18 11:53:46;;;;;;;;;23.25;22.50;;;;;;;;5031519;28;46105;-72
2021/12/18 11:56:11;;;;;;;;;22.25;20.75;;;;;;;;5031381;28;45495;-72
2021/12/18 11:58:44;;;;;;;;;20.25;17.75;;;;;;;;5041033;28;45949;-71
2021/12/18 12:01:14;;;;;;;;;20.75;20.25;;;;;;;;5033273;28;45306;-72
2021/12/18 12:03:44;;;;;;;;;19.25;19.00;;;;;;;;5034848;28;46038;-72
2021/12/18 12:06:26;;;;;;;;;17.75;17.75;;;;;;;;5013156;28;46004;-71
2021/12/18 12:09:10;;;;;;;;;18.50;16.75;;;;;;;;5031916;28;45476;-71
2021/12/18 12:11:49;;;;;;;;;17.25;16.50;;;;;;;;5015430;28;45857;-72
2021/12/18 12:14:14;;;;;;;;;20.50;19.50;;;;;;;;5031199;28;47278;-70
2021/12/18 12:16:42;;;;;;;;;23.50;18.00;;;;;;;;5042254;28;45749;-71
2021/12/18 12:19:08;;;;;;;;;25.25;20.25;;;;;;;;5033154;28;45393;-71
2021/12/18 12:21:40;;;;;;;;;22.00;18.50;;;;;;;;5030538;28;45468;-71
2021/12/18 12:24:06;;;;;;;;;24.25;22.25;;;;;;;;5034446;28;46511;-70
2021/12/18 12:26:31;;;;;;;;;23.50;19.25;;;;;;;;5035492;28;45401;-73
2021/12/18 12:28:56;;;;;;;;;21.50;17.75;;;;;;;;5043727;28;45380;-71
2021/12/18 12:31:22;;;;;;;;;20.75;19.75;;;;;;;;5033537;28;45625;-71
2021/12/18 12:33:49;;;;;;;;;21.00;19.50;;;;;;;;5033516;28;45487;-71
2021/12/18 12:36:25;;;;;;;;;24.25;22.75;;;;;;;;5030086;28;45147;-71
2021/12/18 12:39:02;;;;;;;;;19.00;19.00;;;;;;;;5029476;28;45385;-70
2021/12/18 12:41:31;;;;;;;;;22.00;19.50;;;;;;;;5032101;28;45348;-72
2021/12/18 12:43:59;;;;;;;;;23.75;22.25;;;;;;;;5043187;28;46343;-71
2021/12/18 12:46:25;;;;;;;;;21.00;19.25;;;;;;;;5034809;28;45536;-71
2021/12/18 12:49:01;;;;;;;;;22.75;21.00;;;;;;;;5033420;28;45467;-70
2021/12/18 12:51:48;;;;;;;;;22.00;21.00;;;;;;;;5033386;28;45417;-70
2021/12/18 12:54:33;;;;;;;;;20.00;15.25;;;;;;;;5033052;28;47317;-72
2021/12/18 12:57:17;;;;;;;;;22.00;20.50;;;;;;;;5040787;28;45307;-70
2021/12/18 12:59:42;;;;;;;;;16.25;15.00;;;;;;;;5037586;28;45510;-70
2021/12/18 13:02:08;;;;;;;;;20.50;14.75;;;;;;;;5035579;28;45413;-70
2021/12/18 13:04:33;;;;;;;;;15.50;15.50;;;;;;;;5033891;28;46261;-71
2021/12/18 13:07:09;;;;;;;;;27.25;25.75;;;;;;;;5033146;28;45491;-71
2021/12/18 13:09:34;;;;;;;;;20.50;19.25;;;;;;;;5034365;28;45375;-71
2021/12/18 13:12:04;;;;;;;;;25.75;23.50;;;;;;;;5033923;28;45558;-72
2021/12/18 13:14:36;;;;;;;;;25.00;20.75;;;;;;;;5023461;28;45350;-73
2021/12/18 13:17:15;;;;;;;;;28.00;24.25;;;;;;;;5032500;28;45448;-71
2021/12/18 13:19:50;;;;;;;;;20.25;19.00;;;;;;;;5035964;28;45379;-72
2021/12/18 13:22:16;;;;;;;;;21.75;20.00;;;;;;;;5034292;28;45582;-71
2021/12/18 13:24:41;;;;;;;;;18.00;16.75;;;;;;;;5038915;28;46692;-70
2021/12/18 13:27:10;;;;;;;;;22.50;21.50;;;;;;;;5034334;28;45436;-71
2021/12/18 13:29:35;;;;;;;;;20.50;18.75;;;;;;;;5034122;28;45337;-71
2021/12/18 13:32:00;;;;;;;;;22.00;19.50;;;;;;;;5035120;28;45280;-71
2021/12/18 13:34:27;;;;;;;;;20.25;19.25;;;;;;;;5032895;28;45740;-71
2021/12/18 13:37:01;;;;;;;;;23.25;21.25;;;;;;;;5033153;28;45281;-72
2021/12/18 13:39:47;;;;;;;;;26.00;24.50;;;;;;;;5041073;28;45519;-70
2021/12/18 13:42:19;;;;;;;;;23.25;21.50;;;;;;;;5030481;28;45412;-70
2021/12/18 13:44:50;;;;;;;;;21.25;19.75;;;;;;;;5031113;28;45498;-71
2021/12/18 13:47:30;;;;;;;;;21.25;21.25;;;;;;;;5033211;28;45453;-69
2021/12/18 13:50:18;;;;;;;;;27.00;19.50;;;;;;;;5035157;28;45350;-70
2021/12/18 13:52:46;;;;;;;;;20.25;20.25;;;;;;;;5018957;28;45271;-72
2021/12/18 13:55:20;;;;;;;;;25.50;25.50;;;;;;;;5032254;28;45486;-72
2021/12/18 13:57:57;;;;;;;;;21.00;19.75;;;;;;;;5032184;28;45455;-72
2021/12/18 14:00:22;;;;;;;;;23.75;19.75;;;;;;;;5032804;28;45651;-73
2021/12/18 14:02:48;;;;;;;;;24.50;21.25;;;;;;;;5031920;28;45356;-72
2021/12/18 14:05:13;;;;;;;;;24.75;23.25;;;;;;;;5033193;28;46858;-72
2021/12/18 14:07:39;;;;;;;;;23.75;22.75;;;;;;;;5033996;28;45496;-72
2021/12/18 14:10:07;;;;;;;;;25.50;21.50;;;;;;;;5032712;28;45744;-72
2021/12/18 14:12:32;;;;;;;;;25.25;24.25;;;;;;;;5033020;28;45483;-73
2021/12/18 14:14:59;;;;;;;;;23.00;17.25;;;;;;;;5032394;28;46614;-71
2021/12/18 14:17:25;;;;;;;;;28.00;26.00;;;;;;;;5033246;28;45163;-72
2021/12/18 14:19:53;;;;;;;;;23.00;20.50;;;;;;;;5034077;28;45183;-72
2021/12/18 14:22:25;;;;;;;;;26.75;22.25;;;;;;;;5033899;28;45436;-73
2021/12/18 14:25:00;;;;;;;;;21.75;19.50;;;;;;;;5031043;28;46037;-72
2021/12/18 14:27:43;;;;;;;;;22.75;19.25;;;;;;;;5035157;28;45443;-71
2021/12/18 14:30:22;;;;;;;;;23.75;21.50;;;;;;;;5032489;28;45444;-72
2021/12/18 14:32:47;;;;;;;;;21.75;21.50;;;;;;;;5044734;28;45423;-72
2021/12/18 14:35:15;;;;;;;;;25.00;18.25;;;;;;;;5032347;28;45605;-72
2021/12/18 14:37:47;;;;;;;;;28.50;26.75;;;;;;;;5033546;28;45765;-71
2021/12/18 14:40:17;;;;;;;;;19.00;18.50;;;;;;;;5032606;28;45513;-71
2021/12/18 14:42:54;;;;;;;;;23.00;21.75;;;;;;;;5033450;28;45445;-71
2021/12/18 14:45:20;;;;;;;;;27.25;24.00;;;;;;;;5031958;28;46689;-72
2021/12/18 14:47:47;;;;;;;;;22.75;20.50;;;;;;;;5032676;28;45460;-71
2021/12/18 14:50:12;;;;;;;;;19.25;17.75;;;;;;;;5033623;28;45441;-71
2021/12/18 14:52:55;;;;;;;;;20.75;17.50;;;;;;;;5036297;28;45451;-69
2021/12/18 14:55:32;;;;;;;;;20.75;20.00;;;;;;;;5033253;28;45478;-70
2021/12/18 14:58:02;;;;;;;;;22.00;16.75;;;;;;;;5032799;28;45515;-70
2021/12/18 15:00:32;;;;;;;;;20.25;18.25;;;;;;;;5022980;28;45493;-70
2021/12/18 15:03:27;;;;;;;;;23.00;20.75;;;;;;;;5038412;28;45392;-69